Imrikly — CNA5014 — position and weather

sailwx.info

Track history (hours):
 
Tides and Currents Weather Stations Pressure Air Temp Water Temp Dewpoint Dewpoint Depression Visibility Wind Speed Wind Dir Waves Ship Positions

Imrikly

Last reported at 2017-Sep-24 13:57 UTC. Time now 2017-Sep-24 17:45 UTC.
Position N 27°13' W 013°37'.

Length 106 m; draft 6.2 m.

Type: Ship (hazmat cat D). MMSI: 242426300.

Date/timePositionNaut miles runAvg speedWind from/ knotsBaromVisibWave heightAir tempDewpointWater temp
2017-Sep-24 13:57N 27°13' W 013°37'511.4
2017-Sep-24 13:30N 27°16' W 013°41'511.2
2017-Sep-24 13:00N 27°20' W 013°45'511.0
2017-Sep-24 12:30N 27°24' W 013°50'611.1
2017-Sep-24 12:00N 27°26' W 013°55'611.0
2017-Sep-24 11:30N 27°28' W 014°01'510.9
2017-Sep-24 11:00N 27°30' W 014°07'510.7
2017-Sep-24 10:30N 27°32' W 014°13'510.9
2017-Sep-24 10:00N 27°34' W 014°18'510.8
2017-Sep-24 09:30N 27°36' W 014°24'610.7
2017-Sep-24 08:59N 27°38' W 014°30'510.7
2017-Sep-24 08:30N 27°40' W 014°35'510.5
2017-Sep-24 08:00N 27°41' W 014°41'510.0
2017-Sep-24 07:30N 27°43' W 014°46'510.3
2017-Sep-24 07:00N 27°45' W 014°52'510.1
2017-Sep-24 06:30N 27°47' W 014°57'5 9.8
2017-Sep-24 06:00N 27°49' W 015°02'510.1
2017-Sep-24 05:29N 27°50' W 015°08'611.8
2017-Sep-24 05:00N 27°55' W 015°06'611.3
2017-Sep-24 04:30N 28°01' W 015°04'510.9
2017-Sep-24 04:00N 28°06' W 015°02'5 9.2
2017-Sep-24 03:30N 28°09' W 015°06'510.7
2017-Sep-24 03:00N 28°12' W 015°11'510.5
2017-Sep-24 02:30N 28°15' W 015°16'510.4
2017-Sep-24 02:00N 28°17' W 015°21'510.2
2017-Sep-24 01:30N 28°20' W 015°26'5 9.6
2017-Sep-24 01:00N 28°20' W 015°31'5 9.3
2017-Sep-24 00:30N 28°20' W 015°37'5 9.3
2017-Sep-24 00:00N 28°20' W 015°42'5 9.1
2017-Sep-23 23:30N 28°20' W 015°47'4 8.9
2017-Sep-23 23:00N 28°20' W 015°52'5 9.1
2017-Sep-23 22:30N 28°20' W 015°57'5 9.9
2017-Sep-23 22:00N 28°24' W 016°01'510.0
2017-Sep-23 21:30N 28°25' W 016°06'510.1
2017-Sep-23 21:00N 28°27' W 016°12'2 4.5
2017-Sep-23 20:26N 28°29' W 016°13'78 1.8
2017-Sep-22 02:00N 27°47' W 014°59'510.8
2017-Sep-22 01:30N 27°45' W 014°53'510.8
2017-Sep-22 01:00N 27°44' W 014°47'611.1
2017-Sep-22 00:30N 27°42' W 014°41'510.9
2017-Sep-22 00:00N 27°39' W 014°36'71 2.0
2017-Sep-20 11:48N 27°06' W 013°26'1 2.2
2017-Sep-20 11:30N 27°05' W 013°26'1 1.0
2017-Sep-20 10:05N 27°05' W 013°28'0 0.1
2017-Sep-20 09:59N 27°05' W 013°28'0 0.0
2017-Sep-20 09:29N 27°05' W 013°28'0 0.0
2017-Sep-20 07:29N 27°05' W 013°28'0 0.0
2017-Sep-20 04:41N 27°05' W 013°28'0 0.0
2017-Sep-20 04:23N 27°05' W 013°28'0 0.0
2017-Sep-20 03:53N 27°05' W 013°28'0 0.0
2017-Sep-20 03:20N 27°05' W 013°28'0 0.0
2017-Sep-20 02:35N 27°05' W 013°28'0 0.1
2017-Sep-20 02:29N 27°05' W 013°28'0 0.0
2017-Sep-20 01:59N 27°05' W 013°28'0 0.0
2017-Sep-20 01:17N 27°05' W 013°28'0 0.0
2017-Sep-20 00:59N 27°05' W 013°28'0 0.0
2017-Sep-19 23:47N 27°05' W 013°28'0 0.0
2017-Sep-19 22:53N 27°05' W 013°28'0 0.0
2017-Sep-19 22:29N 27°05' W 013°28'0 0.0
2017-Sep-19 21:32N 27°05' W 013°28'0 0.0
2017-Sep-19 21:17N 27°05' W 013°28'0 0.0
2017-Sep-19 20:59N 27°05' W 013°28'0 0.0
2017-Sep-19 20:29N 27°05' W 013°28'1 1.1
2017-Sep-19 19:40N 27°05' W 013°28'1 7.7
2017-Sep-19 19:30N 27°04' W 013°30'510.0
2017-Sep-19 19:00N 27°02' W 013°34'510.2
2017-Sep-19 18:30N 26°59' W 013°40'510.4
2017-Sep-19 18:00N 26°57' W 013°45'510.4
2017-Sep-19 17:30N 26°54' W 013°50'510.3
2017-Sep-19 17:00N 26°52' W 013°55'510.3
2017-Sep-19 16:30N 26°50' W 014°00'510.2
2017-Sep-19 16:00N 26°47' W 014°05'510.1
2017-Sep-19 15:30N 26°45' W 014°10'610.3
2017-Sep-19 14:54N 26°42' W 014°16'410.0
2017-Sep-19 14:28N 26°40' W 014°21'5 9.8
2017-Sep-19 13:58N 26°38' W 014°25'4 9.2
2017-Sep-19 13:30N 26°36' W 014°30'5 9.2
2017-Sep-19 12:54N 26°33' W 014°35'3 8.2
2017-Sep-19 12:30N 26°31' W 014°38'6 8.4
2017-Sep-19 11:49N 26°26' W 014°41'3 8.2
2017-Sep-19 11:30N 26°24' W 014°42'4 8.0
2017-Sep-19 10:58N 26°20' W 014°45'4 7.8
2017-Sep-19 10:25N 26°16' W 014°47'3 8.1
2017-Sep-19 10:00N 26°13' W 014°49'4 8.2
2017-Sep-19 09:30N 26°10' W 014°51'3 6.0
2017-Sep-19 09:00N 26°08' W 014°53'1 2.6
2017-Sep-19 08:30N 26°06' W 014°53'3 6.2
2017-Sep-19 08:00N 26°04' W 014°55'4 6.9
2017-Sep-19 07:25N 25°60' W 014°57'3 7.1
2017-Sep-19 06:58N 25°57' W 014°58'5 7.5
2017-Sep-19 06:16N 25°52' W 015°01'3 8.3
2017-Sep-19 05:57N 25°50' W 015°02'8 8.4
2017-Sep-19 05:02N 25°43' W 015°06'2 8.8
2017-Sep-19 04:49N 25°41' W 015°07'4 8.6
2017-Sep-19 04:20N 25°38' W 015°09'6 8.4
2017-Sep-19 03:35N 25°32' W 015°12'1 8.6
2017-Sep-19 03:30N 25°31' W 015°12'32 8.6
2017-Sep-18 23:47N 25°03' W 015°29'3 8.5
2017-Sep-18 23:26N 25°01' W 015°31'43 7.8
2017-Sep-18 17:50N 24°22' W 015°52'3 8.1
2017-Sep-18 17:24N 24°19' W 015°54'3 8.0
2017-Sep-18 17:00N 24°16' W 015°55'29 7.9
2017-Sep-18 13:19N 23°50' W 016°10'  
2017-Sep-15 11:55N 25°31' W 015°49'1611.1
2017-Sep-15 10:30N 25°46' W 015°46'2011.1
2017-Sep-15 08:42N 26°06' W 015°42'411.0
2017-Sep-15 08:22N 26°09' W 015°41'411.0
2017-Sep-15 07:58N 26°14' W 015°40'510.8
2017-Sep-15 07:28N 26°19' W 015°38'1310.5
2017-Sep-15 06:16N 26°31' W 015°35'510.3
2017-Sep-15 05:49N 26°36' W 015°34'1410.4
2017-Sep-15 04:29N 26°49' W 015°30'1810.5
2017-Sep-15 02:45N 27°07' W 015°25'310.9
2017-Sep-15 02:30N 27°09' W 015°24'710.9
2017-Sep-15 01:53N 27°16' W 015°23'2111.0
2017-Sep-14 23:57N 27°37' W 015°18'511.3
2017-Sep-14 23:28N 27°42' W 015°16'511.8
2017-Sep-14 23:00N 27°47' W 015°15'611.8
2017-Sep-14 22:30N 27°53' W 015°15'611.6
2017-Sep-14 22:00N 27°59' W 015°15'510.6
2017-Sep-14 21:30N 28°04' W 015°18'511.0
2017-Sep-14 21:01N 28°07' W 015°23'3 5.2
2017-Sep-14 20:30N 28°09' W 015°24'0 0.0
2017-Sep-14 20:00N 28°09' W 015°24'0 0.0
2017-Sep-14 19:30N 28°09' W 015°24'0 0.0
2017-Sep-14 18:52N 28°09' W 015°24'0 0.0
2017-Sep-14 18:22N 28°09' W 015°24'0 0.0
2017-Sep-14 17:52N 28°09' W 015°24'0 0.0
2017-Sep-14 17:25N 28°09' W 015°24'0 0.0
2017-Sep-14 16:55N 28°09' W 015°24'0 0.0
2017-Sep-14 16:25N 28°09' W 015°24'0 0.0
2017-Sep-14 15:55N 28°09' W 015°24'0 0.0
2017-Sep-14 15:22N 28°09' W 015°24'0 0.0
2017-Sep-14 14:58N 28°09' W 015°24'0 0.0
2017-Sep-14 14:28N 28°09' W 015°24'  
Track history (hours):
 
Tides and Currents Weather Stations Pressure Air Temp Water Temp Dewpoint Dewpoint Depression Visibility Wind Speed Wind Dir Waves Ship Positions

Imrikly

Last reported at 2017-Sep-24 13:57 UTC. Time now 2017-Sep-24 17:45 UTC.
Position N 27°13' W 013°37'.

Length 106 m; draft 6.2 m.

Type: Ship (hazmat cat D). MMSI: 242426300.

Date/timePositionNaut miles runAvg speedWind from/ knotsBaromVisibWave heightAir tempDewpointWater temp
2017-Sep-24 13:57N 27°13' W 013°37'511.4
2017-Sep-24 13:30N 27°16' W 013°41'511.2
2017-Sep-24 13:00N 27°20' W 013°45'511.0
2017-Sep-24 12:30N 27°24' W 013°50'611.1
2017-Sep-24 12:00N 27°26' W 013°55'611.0
2017-Sep-24 11:30N 27°28' W 014°01'510.9
2017-Sep-24 11:00N 27°30' W 014°07'510.7
2017-Sep-24 10:30N 27°32' W 014°13'510.9
2017-Sep-24 10:00N 27°34' W 014°18'510.8
2017-Sep-24 09:30N 27°36' W 014°24'610.7
2017-Sep-24 08:59N 27°38' W 014°30'510.7
2017-Sep-24 08:30N 27°40' W 014°35'510.5
2017-Sep-24 08:00N 27°41' W 014°41'510.0
2017-Sep-24 07:30N 27°43' W 014°46'510.3
2017-Sep-24 07:00N 27°45' W 014°52'510.1
2017-Sep-24 06:30N 27°47' W 014°57'5 9.8
2017-Sep-24 06:00N 27°49' W 015°02'510.1
2017-Sep-24 05:29N 27°50' W 015°08'611.8
2017-Sep-24 05:00N 27°55' W 015°06'611.3
2017-Sep-24 04:30N 28°01' W 015°04'510.9
2017-Sep-24 04:00N 28°06' W 015°02'5 9.2
2017-Sep-24 03:30N 28°09' W 015°06'510.7
2017-Sep-24 03:00N 28°12' W 015°11'510.5
2017-Sep-24 02:30N 28°15' W 015°16'510.4
2017-Sep-24 02:00N 28°17' W 015°21'510.2
2017-Sep-24 01:30N 28°20' W 015°26'5 9.6
2017-Sep-24 01:00N 28°20' W 015°31'5 9.3
2017-Sep-24 00:30N 28°20' W 015°37'5 9.3
2017-Sep-24 00:00N 28°20' W 015°42'5 9.1
2017-Sep-23 23:30N 28°20' W 015°47'4 8.9
2017-Sep-23 23:00N 28°20' W 015°52'5 9.1
2017-Sep-23 22:30N 28°20' W 015°57'5 9.9
2017-Sep-23 22:00N 28°24' W 016°01'510.0
2017-Sep-23 21:30N 28°25' W 016°06'510.1
2017-Sep-23 21:00N 28°27' W 016°12'2 4.5
2017-Sep-23 20:26N 28°29' W 016°13'78 1.8
2017-Sep-22 02:00N 27°47' W 014°59'510.8
2017-Sep-22 01:30N 27°45' W 014°53'510.8
2017-Sep-22 01:00N 27°44' W 014°47'611.1
2017-Sep-22 00:30N 27°42' W 014°41'510.9
2017-Sep-22 00:00N 27°39' W 014°36'71 2.0
2017-Sep-20 11:48N 27°06' W 013°26'1 2.2
2017-Sep-20 11:30N 27°05' W 013°26'1 1.0
2017-Sep-20 10:05N 27°05' W 013°28'0 0.1
2017-Sep-20 09:59N 27°05' W 013°28'0 0.0
2017-Sep-20 09:29N 27°05' W 013°28'0 0.0
2017-Sep-20 07:29N 27°05' W 013°28'0 0.0
2017-Sep-20 04:41N 27°05' W 013°28'0 0.0
2017-Sep-20 04:23N 27°05' W 013°28'0 0.0
2017-Sep-20 03:53N 27°05' W 013°28'0 0.0
2017-Sep-20 03:20N 27°05' W 013°28'0 0.0
2017-Sep-20 02:35N 27°05' W 013°28'0 0.1
2017-Sep-20 02:29N 27°05' W 013°28'0 0.0
2017-Sep-20 01:59N 27°05' W 013°28'0 0.0
2017-Sep-20 01:17N 27°05' W 013°28'0 0.0
2017-Sep-20 00:59N 27°05' W 013°28'0 0.0
2017-Sep-19 23:47N 27°05' W 013°28'0 0.0
2017-Sep-19 22:53N 27°05' W 013°28'0 0.0
2017-Sep-19 22:29N 27°05' W 013°28'0 0.0
2017-Sep-19 21:32N 27°05' W 013°28'0 0.0
2017-Sep-19 21:17N 27°05' W 013°28'0 0.0
2017-Sep-19 20:59N 27°05' W 013°28'0 0.0
2017-Sep-19 20:29N 27°05' W 013°28'1 1.1
2017-Sep-19 19:40N 27°05' W 013°28'1 7.7
2017-Sep-19 19:30N 27°04' W 013°30'510.0
2017-Sep-19 19:00N 27°02' W 013°34'510.2
2017-Sep-19 18:30N 26°59' W 013°40'510.4
2017-Sep-19 18:00N 26°57' W 013°45'510.4
2017-Sep-19 17:30N 26°54' W 013°50'510.3
2017-Sep-19 17:00N 26°52' W 013°55'510.3
2017-Sep-19 16:30N 26°50' W 014°00'510.2
2017-Sep-19 16:00N 26°47' W 014°05'510.1
2017-Sep-19 15:30N 26°45' W 014°10'610.3
2017-Sep-19 14:54N 26°42' W 014°16'410.0
2017-Sep-19 14:28N 26°40' W 014°21'5 9.8
2017-Sep-19 13:58N 26°38' W 014°25'4 9.2
2017-Sep-19 13:30N 26°36' W 014°30'5 9.2
2017-Sep-19 12:54N 26°33' W 014°35'3 8.2
2017-Sep-19 12:30N 26°31' W 014°38'6 8.4
2017-Sep-19 11:49N 26°26' W 014°41'3 8.2
2017-Sep-19 11:30N 26°24' W 014°42'4 8.0
2017-Sep-19 10:58N 26°20' W 014°45'4 7.8
2017-Sep-19 10:25N 26°16' W 014°47'3 8.1
2017-Sep-19 10:00N 26°13' W 014°49'4 8.2
2017-Sep-19 09:30N 26°10' W 014°51'3 6.0
2017-Sep-19 09:00N 26°08' W 014°53'1 2.6
2017-Sep-19 08:30N 26°06' W 014°53'3 6.2
2017-Sep-19 08:00N 26°04' W 014°55'4 6.9
2017-Sep-19 07:25N 25°60' W 014°57'3 7.1
2017-Sep-19 06:58N 25°57' W 014°58'5 7.5
2017-Sep-19 06:16N 25°52' W 015°01'3 8.3
2017-Sep-19 05:57N 25°50' W 015°02'8 8.4
2017-Sep-19 05:02N 25°43' W 015°06'2 8.8
2017-Sep-19 04:49N 25°41' W 015°07'4 8.6
2017-Sep-19 04:20N 25°38' W 015°09'6 8.4
2017-Sep-19 03:35N 25°32' W 015°12'1 8.6
2017-Sep-19 03:30N 25°31' W 015°12'32 8.6
2017-Sep-18 23:47N 25°03' W 015°29'3 8.5
2017-Sep-18 23:26N 25°01' W 015°31'43 7.8
2017-Sep-18 17:50N 24°22' W 015°52'3 8.1
2017-Sep-18 17:24N 24°19' W 015°54'3 8.0
2017-Sep-18 17:00N 24°16' W 015°55'29 7.9
2017-Sep-18 13:19N 23°50' W 016°10'  
2017-Sep-15 11:55N 25°31' W 015°49'1611.1
2017-Sep-15 10:30N 25°46' W 015°46'2011.1
2017-Sep-15 08:42N 26°06' W 015°42'411.0
2017-Sep-15 08:22N 26°09' W 015°41'411.0
2017-Sep-15 07:58N 26°14' W 015°40'510.8
2017-Sep-15 07:28N 26°19' W 015°38'1310.5
2017-Sep-15 06:16N 26°31' W 015°35'510.3
2017-Sep-15 05:49N 26°36' W 015°34'1410.4
2017-Sep-15 04:29N 26°49' W 015°30'1810.5
2017-Sep-15 02:45N 27°07' W 015°25'310.9
2017-Sep-15 02:30N 27°09' W 015°24'710.9
2017-Sep-15 01:53N 27°16' W 015°23'2111.0
2017-Sep-14 23:57N 27°37' W 015°18'511.3
2017-Sep-14 23:28N 27°42' W 015°16'511.8
2017-Sep-14 23:00N 27°47' W 015°15'611.8
2017-Sep-14 22:30N 27°53' W 015°15'611.6
2017-Sep-14 22:00N 27°59' W 015°15'510.6
2017-Sep-14 21:30N 28°04' W 015°18'511.0
2017-Sep-14 21:01N 28°07' W 015°23'3 5.2
2017-Sep-14 20:30N 28°09' W 015°24'0 0.0
2017-Sep-14 20:00N 28°09' W 015°24'0 0.0
2017-Sep-14 19:30N 28°09' W 015°24'0 0.0
2017-Sep-14 18:52N 28°09' W 015°24'0 0.0
2017-Sep-14 18:22N 28°09' W 015°24'0 0.0
2017-Sep-14 17:52N 28°09' W 015°24'0 0.0
2017-Sep-14 17:25N 28°09' W 015°24'0 0.0
2017-Sep-14 16:55N 28°09' W 015°24'0 0.0
2017-Sep-14 16:25N 28°09' W 015°24'0 0.0
2017-Sep-14 15:55N 28°09' W 015°24'0 0.0
2017-Sep-14 15:22N 28°09' W 015°24'0 0.0
2017-Sep-14 14:58N 28°09' W 015°24'0 0.0
2017-Sep-14 14:28N 28°09' W 015°24'  

Dump ship's entire track history